sensor_id;sensor_type;location;lat;lon;timestamp;temperature;humidity
47162;DHT22;32921;53.256;8.198;2024-02-16T00:00:26;11.10;99.90
47162;DHT22;32921;53.256;8.198;2024-02-16T00:02:52;11.20;99.90
47162;DHT22;32921;53.256;8.198;2024-02-16T00:05:18;11.20;99.90
47162;DHT22;32921;53.256;8.198;2024-02-16T00:07:44;11.20;99.90
47162;DHT22;32921;53.256;8.198;2024-02-16T00:10:10;11.10;99.90
47162;DHT22;32921;53.256;8.198;2024-02-16T00:12:37;11.30;99.90
47162;DHT22;32921;53.256;8.198;2024-02-16T00:15:04;11.30;99.90
47162;DHT22;32921;53.256;8.198;2024-02-16T00:17:30;11.30;99.90
47162;DHT22;32921;53.256;8.198;2024-02-16T00:19:56;11.30;99.90
47162;DHT22;32921;53.256;8.198;2024-02-16T00:22:22;11.50;99.90
47162;DHT22;32921;53.256;8.198;2024-02-16T00:24:48;11.40;99.90
47162;DHT22;32921;53.256;8.198;2024-02-16T00:27:14;11.50;99.90
47162;DHT22;32921;53.256;8.198;2024-02-16T00:29:40;11.50;99.90
47162;DHT22;32921;53.256;8.198;2024-02-16T00:32:07;11.50;99.90
47162;DHT22;32921;53.256;8.198;2024-02-16T00:34:33;11.50;99.90
47162;DHT22;32921;53.256;8.198;2024-02-16T00:36:59;11.50;99.90
47162;DHT22;32921;53.256;8.198;2024-02-16T00:39:25;11.50;99.90
47162;DHT22;32921;53.256;8.198;2024-02-16T00:41:51;11.50;99.90
47162;DHT22;32921;53.256;8.198;2024-02-16T00:44:17;11.50;99.90
47162;DHT22;32921;53.256;8.198;2024-02-16T00:46:46;11.40;99.90
47162;DHT22;32921;53.256;8.198;2024-02-16T00:49:11;11.40;99.90
47162;DHT22;32921;53.256;8.198;2024-02-16T00:51:37;11.50;99.90
47162;DHT22;32921;53.256;8.198;2024-02-16T00:54:03;11.50;99.90
47162;DHT22;32921;53.256;8.198;2024-02-16T00:56:30;11.50;99.90
47162;DHT22;32921;53.256;8.198;2024-02-16T00:58:56;11.40;99.90
47162;DHT22;32921;53.256;8.198;2024-02-16T01:01:21;11.40;99.90
47162;DHT22;32921;53.256;8.198;2024-02-16T01:03:48;11.40;99.90
47162;DHT22;32921;53.256;8.198;2024-02-16T01:06:14;11.40;99.90
47162;DHT22;32921;53.256;8.198;2024-02-16T01:08:40;11.40;99.90
47162;DHT22;32921;53.256;8.198;2024-02-16T01:11:06;11.40;99.90
47162;DHT22;32921;53.256;8.198;2024-02-16T01:13:32;11.40;99.90
47162;DHT22;32921;53.256;8.198;2024-02-16T01:15:58;11.40;99.90
47162;DHT22;32921;53.256;8.198;2024-02-16T01:18:25;11.40;99.90
47162;DHT22;32921;53.256;8.198;2024-02-16T01:20:51;11.40;99.90
47162;DHT22;32921;53.256;8.198;2024-02-16T01:23:17;11.40;99.90
47162;DHT22;32921;53.256;8.198;2024-02-16T01:25:43;11.40;99.90
47162;DHT22;32921;53.256;8.198;2024-02-16T01:28:08;11.50;99.90
47162;DHT22;32921;53.256;8.198;2024-02-16T01:30:34;11.50;99.90
47162;DHT22;32921;53.256;8.198;2024-02-16T01:32:59;11.50;99.90
47162;DHT22;32921;53.256;8.198;2024-02-16T01:35:25;11.40;99.90
47162;DHT22;32921;53.256;8.198;2024-02-16T01:37:50;11.40;99.90
47162;DHT22;32921;53.256;8.198;2024-02-16T01:40:16;11.40;99.90
47162;DHT22;32921;53.256;8.198;2024-02-16T01:42:49;11.40;99.90
47162;DHT22;32921;53.256;8.198;2024-02-16T01:45:14;11.50;99.90
47162;DHT22;32921;53.256;8.198;2024-02-16T01:47:42;11.40;99.90
47162;DHT22;32921;53.256;8.198;2024-02-16T01:50:09;11.50;99.90
47162;DHT22;32921;53.256;8.198;2024-02-16T01:52:36;11.50;99.90
47162;DHT22;32921;53.256;8.198;2024-02-16T01:55:04;11.40;99.90
47162;DHT22;32921;53.256;8.198;2024-02-16T01:57:31;11.50;99.90
47162;DHT22;32921;53.256;8.198;2024-02-16T01:59:58;11.50;99.90
47162;DHT22;32921;53.256;8.198;2024-02-16T02:02:23;11.50;99.90
47162;DHT22;32921;53.256;8.198;2024-02-16T02:04:49;11.50;99.90
47162;DHT22;32921;53.256;8.198;2024-02-16T02:07:15;11.40;99.90
47162;DHT22;32921;53.256;8.198;2024-02-16T02:09:42;11.40;99.90
47162;DHT22;32921;53.256;8.198;2024-02-16T02:12:10;11.30;99.90
47162;DHT22;32921;53.256;8.198;2024-02-16T02:14:36;11.30;99.90
47162;DHT22;32921;53.256;8.198;2024-02-16T02:17:02;11.30;99.90
47162;DHT22;32921;53.256;8.198;2024-02-16T02:19:29;11.20;99.90
47162;DHT22;32921;53.256;8.198;2024-02-16T02:21:55;11.20;99.90
47162;DHT22;32921;53.256;8.198;2024-02-16T02:24:21;11.20;99.90
47162;DHT22;32921;53.256;8.198;2024-02-16T02:26:46;11.10;99.90
47162;DHT22;32921;53.256;8.198;2024-02-16T02:29:12;11.10;99.90
47162;DHT22;32921;53.256;8.198;2024-02-16T02:31:37;11.10;99.90
47162;DHT22;32921;53.256;8.198;2024-02-16T02:34:03;11.10;99.90
47162;DHT22;32921;53.256;8.198;2024-02-16T02:36:31;11.10;99.90
47162;DHT22;32921;53.256;8.198;2024-02-16T02:38:58;11.10;99.90
47162;DHT22;32921;53.256;8.198;2024-02-16T02:41:24;11.20;99.90
47162;DHT22;32921;53.256;8.198;2024-02-16T02:43:51;11.10;99.90
47162;DHT22;32921;53.256;8.198;2024-02-16T02:46:18;11.10;99.90
47162;DHT22;32921;53.256;8.198;2024-02-16T02:48:47;11.10;99.90
47162;DHT22;32921;53.256;8.198;2024-02-16T02:51:12;11.20;99.90
47162;DHT22;32921;53.256;8.198;2024-02-16T02:53:38;11.20;99.90
47162;DHT22;32921;53.256;8.198;2024-02-16T02:56:04;11.20;99.90
47162;DHT22;32921;53.256;8.198;2024-02-16T02:58:30;11.20;99.90
47162;DHT22;32921;53.256;8.198;2024-02-16T03:00:56;11.20;99.90
47162;DHT22;32921;53.256;8.198;2024-02-16T03:03:22;11.20;99.90
47162;DHT22;32921;53.256;8.198;2024-02-16T03:05:47;11.20;99.90
47162;DHT22;32921;53.256;8.198;2024-02-16T03:08:14;11.30;99.90
47162;DHT22;32921;53.256;8.198;2024-02-16T03:10:40;11.30;99.90
47162;DHT22;32921;53.256;8.198;2024-02-16T03:13:05;11.30;99.90
47162;DHT22;32921;53.256;8.198;2024-02-16T03:15:33;11.20;99.90
47162;DHT22;32921;53.256;8.198;2024-02-16T03:18:01;11.20;99.90
47162;DHT22;32921;53.256;8.198;2024-02-16T03:20:27;11.20;99.90
47162;DHT22;32921;53.256;8.198;2024-02-16T03:22:52;11.20;99.90
47162;DHT22;32921;53.256;8.198;2024-02-16T03:25:18;11.10;99.90
47162;DHT22;32921;53.256;8.198;2024-02-16T03:27:44;11.10;99.90
47162;DHT22;32921;53.256;8.198;2024-02-16T03:30:10;11.10;99.90
47162;DHT22;32921;53.256;8.198;2024-02-16T03:32:36;11.10;99.90
47162;DHT22;32921;53.256;8.198;2024-02-16T03:35:01;11.00;99.90
47162;DHT22;32921;53.256;8.198;2024-02-16T03:37:27;10.90;99.90
47162;DHT22;32921;53.256;8.198;2024-02-16T03:39:53;10.90;99.90
47162;DHT22;32921;53.256;8.198;2024-02-16T03:42:19;10.80;99.90
47162;DHT22;32921;53.256;8.198;2024-02-16T03:44:45;10.80;99.90
47162;DHT22;32921;53.256;8.198;2024-02-16T03:47:11;10.80;99.90
47162;DHT22;32921;53.256;8.198;2024-02-16T03:49:37;10.80;99.90
47162;DHT22;32921;53.256;8.198;2024-02-16T03:52:03;10.70;99.90
47162;DHT22;32921;53.256;8.198;2024-02-16T03:54:29;10.70;99.90
47162;DHT22;32921;53.256;8.198;2024-02-16T03:56:55;10.70;99.90
47162;DHT22;32921;53.256;8.198;2024-02-16T03:59:21;10.70;99.90
47162;DHT22;32921;53.256;8.198;2024-02-16T04:01:46;10.70;99.90
47162;DHT22;32921;53.256;8.198;2024-02-16T04:04:12;10.80;99.90
47162;DHT22;32921;53.256;8.198;2024-02-16T04:06:38;10.70;99.90
47162;DHT22;32921;53.256;8.198;2024-02-16T04:09:05;10.70;99.90
47162;DHT22;32921;53.256;8.198;2024-02-16T04:11:34;10.60;99.90
47162;DHT22;32921;53.256;8.198;2024-02-16T04:14:00;10.60;99.90
47162;DHT22;32921;53.256;8.198;2024-02-16T04:16:26;10.60;99.90
47162;DHT22;32921;53.256;8.198;2024-02-16T04:18:52;10.50;99.90
47162;DHT22;32921;53.256;8.198;2024-02-16T04:21:17;10.40;99.90
47162;DHT22;32921;53.256;8.198;2024-02-16T04:23:44;10.40;99.90
47162;DHT22;32921;53.256;8.198;2024-02-16T04:26:09;10.30;99.90
47162;DHT22;32921;53.256;8.198;2024-02-16T04:28:35;10.30;99.90
47162;DHT22;32921;53.256;8.198;2024-02-16T04:31:01;10.30;99.90
47162;DHT22;32921;53.256;8.198;2024-02-16T04:33:27;10.20;99.90
47162;DHT22;32921;53.256;8.198;2024-02-16T04:35:52;10.20;99.90
47162;DHT22;32921;53.256;8.198;2024-02-16T04:38:18;10.10;99.90
47162;DHT22;32921;53.256;8.198;2024-02-16T04:40:45;10.10;99.90
47162;DHT22;32921;53.256;8.198;2024-02-16T04:43:10;10.10;99.90
47162;DHT22;32921;53.256;8.198;2024-02-16T04:45:36;10.10;99.90
47162;DHT22;32921;53.256;8.198;2024-02-16T04:48:05;10.10;99.90
47162;DHT22;32921;53.256;8.198;2024-02-16T04:50:34;10.20;99.90
47162;DHT22;32921;53.256;8.198;2024-02-16T04:53:00;10.20;99.90
47162;DHT22;32921;53.256;8.198;2024-02-16T04:55:30;10.10;99.90
47162;DHT22;32921;53.256;8.198;2024-02-16T04:57:56;10.10;99.90
47162;DHT22;32921;53.256;8.198;2024-02-16T05:00:22;10.10;99.90
47162;DHT22;32921;53.256;8.198;2024-02-16T05:02:48;10.10;99.90
47162;DHT22;32921;53.256;8.198;2024-02-16T05:05:14;10.00;99.90
47162;DHT22;32921;53.256;8.198;2024-02-16T05:07:42;10.10;99.90
47162;DHT22;32921;53.256;8.198;2024-02-16T05:10:10;10.20;99.90
47162;DHT22;32921;53.256;8.198;2024-02-16T05:12:36;10.30;99.90
47162;DHT22;32921;53.256;8.198;2024-02-16T05:15:03;10.40;99.90
47162;DHT22;32921;53.256;8.198;2024-02-16T05:17:29;10.40;99.90
47162;DHT22;32921;53.256;8.198;2024-02-16T05:19:54;10.30;99.90
47162;DHT22;32921;53.256;8.198;2024-02-16T05:22:20;10.30;99.90
47162;DHT22;32921;53.256;8.198;2024-02-16T05:24:47;10.30;99.90
47162;DHT22;32921;53.256;8.198;2024-02-16T05:27:13;10.20;99.90
47162;DHT22;32921;53.256;8.198;2024-02-16T05:29:39;10.10;99.90
47162;DHT22;32921;53.256;8.198;2024-02-16T05:32:05;10.20;99.90
47162;DHT22;32921;53.256;8.198;2024-02-16T05:34:31;10.30;99.90
47162;DHT22;32921;53.256;8.198;2024-02-16T05:37:04;10.30;99.90
47162;DHT22;32921;53.256;8.198;2024-02-16T05:39:31;10.30;99.90
47162;DHT22;32921;53.256;8.198;2024-02-16T05:42:00;10.40;99.90
47162;DHT22;32921;53.256;8.198;2024-02-16T05:44:26;10.40;99.90
47162;DHT22;32921;53.256;8.198;2024-02-16T05:46:52;10.30;99.90
47162;DHT22;32921;53.256;8.198;2024-02-16T05:49:17;10.30;99.90
47162;DHT22;32921;53.256;8.198;2024-02-16T05:51:43;10.30;99.90
47162;DHT22;32921;53.256;8.198;2024-02-16T05:54:26;10.30;99.90
47162;DHT22;32921;53.256;8.198;2024-02-16T05:56:52;10.10;99.90
47162;DHT22;32921;53.256;8.198;2024-02-16T05:59:18;10.10;99.90
47162;DHT22;32921;53.256;8.198;2024-02-16T06:01:43;10.10;99.90
47162;DHT22;32921;53.256;8.198;2024-02-16T06:04:09;10.10;99.90
47162;DHT22;32921;53.256;8.198;2024-02-16T06:06:36;10.10;99.90
47162;DHT22;32921;53.256;8.198;2024-02-16T06:09:01;10.00;99.90
47162;DHT22;32921;53.256;8.198;2024-02-16T06:11:27;9.90;99.90
47162;DHT22;32921;53.256;8.198;2024-02-16T06:13:53;10.00;99.90
47162;DHT22;32921;53.256;8.198;2024-02-16T06:16:19;10.10;99.90
47162;DHT22;32921;53.256;8.198;2024-02-16T06:18:45;10.10;99.90
47162;DHT22;32921;53.256;8.198;2024-02-16T06:21:10;10.10;99.90
47162;DHT22;32921;53.256;8.198;2024-02-16T06:23:36;10.10;99.90
47162;DHT22;32921;53.256;8.198;2024-02-16T06:26:01;10.00;99.90
47162;DHT22;32921;53.256;8.198;2024-02-16T06:28:27;9.90;99.90
47162;DHT22;32921;53.256;8.198;2024-02-16T06:30:52;9.90;99.90
47162;DHT22;32921;53.256;8.198;2024-02-16T06:33:18;9.90;99.90
47162;DHT22;32921;53.256;8.198;2024-02-16T06:35:45;9.80;99.90
47162;DHT22;32921;53.256;8.198;2024-02-16T06:38:12;9.80;99.90
47162;DHT22;32921;53.256;8.198;2024-02-16T06:40:37;9.80;99.90
47162;DHT22;32921;53.256;8.198;2024-02-16T06:43:03;9.80;99.90
47162;DHT22;32921;53.256;8.198;2024-02-16T06:45:30;10.00;99.90
47162;DHT22;32921;53.256;8.198;2024-02-16T06:47:56;10.10;99.90
47162;DHT22;32921;53.256;8.198;2024-02-16T06:50:22;10.10;99.90
47162;DHT22;32921;53.256;8.198;2024-02-16T06:52:47;10.10;99.90
47162;DHT22;32921;53.256;8.198;2024-02-16T06:55:13;10.20;99.90
47162;DHT22;32921;53.256;8.198;2024-02-16T06:57:39;10.20;99.90
47162;DHT22;32921;53.256;8.198;2024-02-16T07:00:05;10.20;99.90
47162;DHT22;32921;53.256;8.198;2024-02-16T07:02:31;10.30;99.90
47162;DHT22;32921;53.256;8.198;2024-02-16T07:04:57;10.40;99.90
47162;DHT22;32921;53.256;8.198;2024-02-16T07:07:23;10.50;99.90
47162;DHT22;32921;53.256;8.198;2024-02-16T07:09:49;10.60;99.90
47162;DHT22;32921;53.256;8.198;2024-02-16T07:12:14;10.70;99.90
47162;DHT22;32921;53.256;8.198;2024-02-16T07:14:40;10.70;99.90
47162;DHT22;32921;53.256;8.198;2024-02-16T07:17:06;10.80;99.90
47162;DHT22;32921;53.256;8.198;2024-02-16T07:19:35;10.90;99.90
47162;DHT22;32921;53.256;8.198;2024-02-16T07:22:00;11.00;99.90
47162;DHT22;32921;53.256;8.198;2024-02-16T07:24:26;11.00;99.90
47162;DHT22;32921;53.256;8.198;2024-02-16T07:26:52;11.00;99.90
47162;DHT22;32921;53.256;8.198;2024-02-16T07:29:18;11.00;99.90
47162;DHT22;32921;53.256;8.198;2024-02-16T07:31:44;11.10;99.90
47162;DHT22;32921;53.256;8.198;2024-02-16T07:34:10;11.10;99.90
47162;DHT22;32921;53.256;8.198;2024-02-16T07:36:36;11.20;99.90
47162;DHT22;32921;53.256;8.198;2024-02-16T07:39:02;11.20;99.90
47162;DHT22;32921;53.256;8.198;2024-02-16T07:41:30;11.20;99.90
47162;DHT22;32921;53.256;8.198;2024-02-16T07:43:55;11.20;99.90
47162;DHT22;32921;53.256;8.198;2024-02-16T07:46:21;11.30;99.90
47162;DHT22;32921;53.256;8.198;2024-02-16T07:48:48;11.30;99.90
47162;DHT22;32921;53.256;8.198;2024-02-16T07:51:14;11.40;99.90
47162;DHT22;32921;53.256;8.198;2024-02-16T07:53:39;11.50;99.90
47162;DHT22;32921;53.256;8.198;2024-02-16T07:56:07;11.50;99.90
47162;DHT22;32921;53.256;8.198;2024-02-16T07:58:33;11.60;99.90
47162;DHT22;32921;53.256;8.198;2024-02-16T08:00:58;11.70;99.90
47162;DHT22;32921;53.256;8.198;2024-02-16T08:03:24;11.70;99.90
47162;DHT22;32921;53.256;8.198;2024-02-16T08:05:49;11.80;99.90
47162;DHT22;32921;53.256;8.198;2024-02-16T08:08:15;11.90;99.90
47162;DHT22;32921;53.256;8.198;2024-02-16T08:10:40;12.00;99.90
47162;DHT22;32921;53.256;8.198;2024-02-16T08:13:06;12.10;99.90
47162;DHT22;32921;53.256;8.198;2024-02-16T08:15:32;12.20;99.90
47162;DHT22;32921;53.256;8.198;2024-02-16T08:17:57;12.20;99.90
47162;DHT22;32921;53.256;8.198;2024-02-16T08:20:23;12.30;99.90
47162;DHT22;32921;53.256;8.198;2024-02-16T08:22:49;12.40;99.90
47162;DHT22;32921;53.256;8.198;2024-02-16T08:25:15;12.40;99.90
47162;DHT22;32921;53.256;8.198;2024-02-16T08:27:40;12.50;99.90
47162;DHT22;32921;53.256;8.198;2024-02-16T08:30:06;12.50;99.90
47162;DHT22;32921;53.256;8.198;2024-02-16T08:32:34;12.50;99.90
47162;DHT22;32921;53.256;8.198;2024-02-16T08:35:00;12.60;99.90
47162;DHT22;32921;53.256;8.198;2024-02-16T08:37:26;12.60;99.90
47162;DHT22;32921;53.256;8.198;2024-02-16T08:39:52;12.70;99.90
47162;DHT22;32921;53.256;8.198;2024-02-16T08:42:18;12.70;99.90
47162;DHT22;32921;53.256;8.198;2024-02-16T08:44:43;12.70;99.90
47162;DHT22;32921;53.256;8.198;2024-02-16T08:47:09;12.80;99.90
47162;DHT22;32921;53.256;8.198;2024-02-16T08:49:35;12.80;99.90
47162;DHT22;32921;53.256;8.198;2024-02-16T08:52:01;12.90;99.90
47162;DHT22;32921;53.256;8.198;2024-02-16T08:54:26;13.00;99.90
47162;DHT22;32921;53.256;8.198;2024-02-16T08:56:53;13.10;99.90
47162;DHT22;32921;53.256;8.198;2024-02-16T08:59:19;13.10;99.90
47162;DHT22;32921;53.256;8.198;2024-02-16T09:01:45;13.20;99.90
47162;DHT22;32921;53.256;8.198;2024-02-16T09:04:10;13.30;99.90
47162;DHT22;32921;53.256;8.198;2024-02-16T09:06:36;13.40;99.90
47162;DHT22;32921;53.256;8.198;2024-02-16T09:09:03;13.60;99.90
47162;DHT22;32921;53.256;8.198;2024-02-16T09:11:28;13.70;99.90
47162;DHT22;32921;53.256;8.198;2024-02-16T09:13:54;13.80;99.90
47162;DHT22;32921;53.256;8.198;2024-02-16T09:16:20;13.90;99.90
47162;DHT22;32921;53.256;8.198;2024-02-16T09:18:45;13.90;99.90
47162;DHT22;32921;53.256;8.198;2024-02-16T09:21:13;14.00;99.90
47162;DHT22;32921;53.256;8.198;2024-02-16T09:23:40;14.00;99.90
47162;DHT22;32921;53.256;8.198;2024-02-16T09:26:05;14.10;99.90
47162;DHT22;32921;53.256;8.198;2024-02-16T09:28:31;14.10;99.90
47162;DHT22;32921;53.256;8.198;2024-02-16T09:30:57;14.20;99.90
47162;DHT22;32921;53.256;8.198;2024-02-16T09:33:23;14.20;99.90
47162;DHT22;32921;53.256;8.198;2024-02-16T09:35:52;14.10;99.90
47162;DHT22;32921;53.256;8.198;2024-02-16T09:38:18;14.20;99.90
47162;DHT22;32921;53.256;8.198;2024-02-16T09:40:44;14.20;99.90
47162;DHT22;32921;53.256;8.198;2024-02-16T09:43:09;14.10;99.90
47162;DHT22;32921;53.256;8.198;2024-02-16T09:45:36;14.10;99.90
47162;DHT22;32921;53.256;8.198;2024-02-16T09:48:02;14.10;99.90
47162;DHT22;32921;53.256;8.198;2024-02-16T09:50:33;14.30;99.90
47162;DHT22;32921;53.256;8.198;2024-02-16T09:53:00;14.30;99.90
47162;DHT22;32921;53.256;8.198;2024-02-16T09:55:32;14.40;99.90
47162;DHT22;32921;53.256;8.198;2024-02-16T09:58:00;14.40;99.90
47162;DHT22;32921;53.256;8.198;2024-02-16T10:00:26;14.50;99.90
47162;DHT22;32921;53.256;8.198;2024-02-16T10:02:52;14.50;99.90
47162;DHT22;32921;53.256;8.198;2024-02-16T10:05:20;14.50;99.90
47162;DHT22;32921;53.256;8.198;2024-02-16T10:07:46;14.50;99.90
47162;DHT22;32921;53.256;8.198;2024-02-16T10:13:00;14.50;99.90
47162;DHT22;32921;53.256;8.198;2024-02-16T10:15:26;14.40;99.90
47162;DHT22;32921;53.256;8.198;2024-02-16T10:18:02;14.40;99.90
47162;DHT22;32921;53.256;8.198;2024-02-16T10:20:28;14.30;99.90
47162;DHT22;32921;53.256;8.198;2024-02-16T10:23:11;14.20;99.90
47162;DHT22;32921;53.256;8.198;2024-02-16T10:25:38;14.20;99.90
47162;DHT22;32921;53.256;8.198;2024-02-16T10:28:08;14.30;99.90
47162;DHT22;32921;53.256;8.198;2024-02-16T10:30:36;14.50;99.90
47162;DHT22;32921;53.256;8.198;2024-02-16T10:33:06;14.70;99.90
47162;DHT22;32921;53.256;8.198;2024-02-16T10:35:34;14.90;99.90
47162;DHT22;32921;53.256;8.198;2024-02-16T10:38:05;15.00;99.90
47162;DHT22;32921;53.256;8.198;2024-02-16T10:40:38;15.00;99.90
47162;DHT22;32921;53.256;8.198;2024-02-16T10:43:05;15.20;99.90
47162;DHT22;32921;53.256;8.198;2024-02-16T10:45:36;15.30;99.90
47162;DHT22;32921;53.256;8.198;2024-02-16T10:48:02;15.40;99.90
47162;DHT22;32921;53.256;8.198;2024-02-16T10:50:28;15.60;99.90
47162;DHT22;32921;53.256;8.198;2024-02-16T10:52:55;15.70;99.90
47162;DHT22;32921;53.256;8.198;2024-02-16T10:55:22;15.80;99.90
47162;DHT22;32921;53.256;8.198;2024-02-16T10:57:50;15.90;99.90
47162;DHT22;32921;53.256;8.198;2024-02-16T11:00:16;16.00;99.90
47162;DHT22;32921;53.256;8.198;2024-02-16T11:02:53;16.10;99.90
47162;DHT22;32921;53.256;8.198;2024-02-16T11:05:31;16.00;99.90
47162;DHT22;32921;53.256;8.198;2024-02-16T11:08:05;16.00;99.90
47162;DHT22;32921;53.256;8.198;2024-02-16T11:10:31;15.70;99.90
47162;DHT22;32921;53.256;8.198;2024-02-16T11:13:04;15.70;99.90
47162;DHT22;32921;53.256;8.198;2024-02-16T11:15:34;15.80;99.90
47162;DHT22;32921;53.256;8.198;2024-02-16T11:18:03;15.90;99.90
47162;DHT22;32921;53.256;8.198;2024-02-16T11:20:36;16.00;99.90
47162;DHT22;32921;53.256;8.198;2024-02-16T11:23:09;16.00;99.90
47162;DHT22;32921;53.256;8.198;2024-02-16T11:25:36;16.00;99.90
47162;DHT22;32921;53.256;8.198;2024-02-16T11:28:02;16.10;99.90
47162;DHT22;32921;53.256;8.198;2024-02-16T11:30:34;16.30;99.90
47162;DHT22;32921;53.256;8.198;2024-02-16T11:33:01;16.20;99.90
47162;DHT22;32921;53.256;8.198;2024-02-16T11:35:26;16.20;99.90
47162;DHT22;32921;53.256;8.198;2024-02-16T11:37:52;16.20;99.90
47162;DHT22;32921;53.256;8.198;2024-02-16T11:40:17;16.40;99.90
47162;DHT22;32921;53.256;8.198;2024-02-16T11:42:44;16.60;99.90
47162;DHT22;32921;53.256;8.198;2024-02-16T11:45:12;16.50;99.90
47162;DHT22;32921;53.256;8.198;2024-02-16T11:47:38;16.50;99.90
47162;DHT22;32921;53.256;8.198;2024-02-16T11:50:08;16.50;99.90
47162;DHT22;32921;53.256;8.198;2024-02-16T11:52:40;16.40;99.90
47162;DHT22;32921;53.256;8.198;2024-02-16T11:55:09;16.10;99.90
47162;DHT22;32921;53.256;8.198;2024-02-16T11:57:37;16.10;99.90
47162;DHT22;32921;53.256;8.198;2024-02-16T12:00:03;16.20;99.90
47162;DHT22;32921;53.256;8.198;2024-02-16T12:02:37;16.20;99.90
47162;DHT22;32921;53.256;8.198;2024-02-16T12:05:03;16.30;99.90
47162;DHT22;32921;53.256;8.198;2024-02-16T12:07:30;16.20;99.90
47162;DHT22;32921;53.256;8.198;2024-02-16T12:10:00;16.10;99.90
47162;DHT22;32921;53.256;8.198;2024-02-16T12:12:27;16.20;99.90
47162;DHT22;32921;53.256;8.198;2024-02-16T12:14:54;16.20;99.90
47162;DHT22;32921;53.256;8.198;2024-02-16T12:17:20;16.10;99.90
47162;DHT22;32921;53.256;8.198;2024-02-16T12:19:46;16.20;99.90
47162;DHT22;32921;53.256;8.198;2024-02-16T12:22:17;16.30;99.90
47162;DHT22;32921;53.256;8.198;2024-02-16T12:24:47;16.20;99.90
47162;DHT22;32921;53.256;8.198;2024-02-16T12:27:12;16.20;99.90
47162;DHT22;32921;53.256;8.198;2024-02-16T12:29:39;16.00;99.90
47162;DHT22;32921;53.256;8.198;2024-02-16T12:32:05;16.00;99.90
47162;DHT22;32921;53.256;8.198;2024-02-16T12:34:31;15.80;99.90
47162;DHT22;32921;53.256;8.198;2024-02-16T12:36:57;15.60;99.90
47162;DHT22;32921;53.256;8.198;2024-02-16T12:39:22;15.30;99.90
47162;DHT22;32921;53.256;8.198;2024-02-16T12:41:48;15.10;99.90
47162;DHT22;32921;53.256;8.198;2024-02-16T12:44:14;14.60;99.90
47162;DHT22;32921;53.256;8.198;2024-02-16T12:46:40;14.30;99.90
47162;DHT22;32921;53.256;8.198;2024-02-16T12:49:08;14.00;99.90
47162;DHT22;32921;53.256;8.198;2024-02-16T12:51:34;13.80;99.90
47162;DHT22;32921;53.256;8.198;2024-02-16T12:54:00;13.70;99.90
47162;DHT22;32921;53.256;8.198;2024-02-16T12:56:29;13.70;99.90
47162;DHT22;32921;53.256;8.198;2024-02-16T12:58:54;13.60;99.90
47162;DHT22;32921;53.256;8.198;2024-02-16T13:01:20;13.50;99.90
47162;DHT22;32921;53.256;8.198;2024-02-16T13:03:46;13.50;99.90
47162;DHT22;32921;53.256;8.198;2024-02-16T13:06:12;13.50;99.90
47162;DHT22;32921;53.256;8.198;2024-02-16T13:08:38;13.40;99.90
47162;DHT22;32921;53.256;8.198;2024-02-16T13:11:04;13.40;99.90
47162;DHT22;32921;53.256;8.198;2024-02-16T13:13:30;13.40;99.90
47162;DHT22;32921;53.256;8.198;2024-02-16T13:15:57;13.30;99.90
47162;DHT22;32921;53.256;8.198;2024-02-16T13:18:24;13.30;99.90
47162;DHT22;32921;53.256;8.198;2024-02-16T13:20:50;13.30;99.90
47162;DHT22;32921;53.256;8.198;2024-02-16T13:23:15;13.30;99.90
47162;DHT22;32921;53.256;8.198;2024-02-16T13:25:41;13.20;99.90
47162;DHT22;32921;53.256;8.198;2024-02-16T13:28:07;13.10;99.90
47162;DHT22;32921;53.256;8.198;2024-02-16T13:30:32;13.10;99.90
47162;DHT22;32921;53.256;8.198;2024-02-16T13:32:58;13.10;99.90
47162;DHT22;32921;53.256;8.198;2024-02-16T13:35:24;13.00;99.90
47162;DHT22;32921;53.256;8.198;2024-02-16T13:37:49;13.00;99.90
47162;DHT22;32921;53.256;8.198;2024-02-16T13:40:15;12.90;99.90
47162;DHT22;32921;53.256;8.198;2024-02-16T13:42:42;12.90;99.90
47162;DHT22;32921;53.256;8.198;2024-02-16T13:45:08;12.90;99.90
47162;DHT22;32921;53.256;8.198;2024-02-16T13:47:35;13.00;99.90
47162;DHT22;32921;53.256;8.198;2024-02-16T13:50:00;13.10;99.90
47162;DHT22;32921;53.256;8.198;2024-02-16T13:52:26;13.10;99.90
47162;DHT22;32921;53.256;8.198;2024-02-16T13:54:52;13.10;99.90
47162;DHT22;32921;53.256;8.198;2024-02-16T13:57:18;13.10;99.90
47162;DHT22;32921;53.256;8.198;2024-02-16T13:59:45;13.10;99.90
47162;DHT22;32921;53.256;8.198;2024-02-16T14:02:11;13.10;99.90
47162;DHT22;32921;53.256;8.198;2024-02-16T14:04:37;13.10;99.90
47162;DHT22;32921;53.256;8.198;2024-02-16T14:07:03;13.10;99.90
47162;DHT22;32921;53.256;8.198;2024-02-16T14:09:29;13.10;99.90
47162;DHT22;32921;53.256;8.198;2024-02-16T14:11:55;13.10;99.90
47162;DHT22;32921;53.256;8.198;2024-02-16T14:14:23;13.10;99.90
47162;DHT22;32921;53.256;8.198;2024-02-16T14:16:49;13.10;99.90
47162;DHT22;32921;53.256;8.198;2024-02-16T14:19:15;13.00;99.90
47162;DHT22;32921;53.256;8.198;2024-02-16T14:21:40;12.90;99.90
47162;DHT22;32921;53.256;8.198;2024-02-16T14:24:08;12.90;99.90
47162;DHT22;32921;53.256;8.198;2024-02-16T14:26:35;12.90;99.90
47162;DHT22;32921;53.256;8.198;2024-02-16T14:29:01;12.80;99.90
47162;DHT22;32921;53.256;8.198;2024-02-16T14:31:26;12.80;99.90
47162;DHT22;32921;53.256;8.198;2024-02-16T14:33:52;12.80;99.90
47162;DHT22;32921;53.256;8.198;2024-02-16T14:36:17;12.70;99.90
47162;DHT22;32921;53.256;8.198;2024-02-16T14:38:43;12.70;99.90
47162;DHT22;32921;53.256;8.198;2024-02-16T14:41:09;12.70;99.90
47162;DHT22;32921;53.256;8.198;2024-02-16T14:43:35;12.70;99.90
47162;DHT22;32921;53.256;8.198;2024-02-16T14:46:00;12.60;99.90
47162;DHT22;32921;53.256;8.198;2024-02-16T14:48:26;12.60;99.90
47162;DHT22;32921;53.256;8.198;2024-02-16T14:50:53;12.50;99.90
47162;DHT22;32921;53.256;8.198;2024-02-16T14:53:19;12.40;99.90
47162;DHT22;32921;53.256;8.198;2024-02-16T14:55:46;12.30;99.90
47162;DHT22;32921;53.256;8.198;2024-02-16T14:58:12;12.30;99.90
47162;DHT22;32921;53.256;8.198;2024-02-16T15:00:38;12.20;99.90
47162;DHT22;32921;53.256;8.198;2024-02-16T15:03:04;12.10;99.90
47162;DHT22;32921;53.256;8.198;2024-02-16T15:05:30;12.10;99.90
47162;DHT22;32921;53.256;8.198;2024-02-16T15:07:55;12.00;99.90
47162;DHT22;32921;53.256;8.198;2024-02-16T15:10:21;12.00;99.90
47162;DHT22;32921;53.256;8.198;2024-02-16T15:12:47;11.90;99.90
47162;DHT22;32921;53.256;8.198;2024-02-16T15:15:13;11.90;99.90
47162;DHT22;32921;53.256;8.198;2024-02-16T15:17:39;11.80;99.90
47162;DHT22;32921;53.256;8.198;2024-02-16T15:20:06;11.80;99.90
47162;DHT22;32921;53.256;8.198;2024-02-16T15:22:33;11.80;99.90
47162;DHT22;32921;53.256;8.198;2024-02-16T15:24:58;11.80;99.90
47162;DHT22;32921;53.256;8.198;2024-02-16T15:27:24;11.80;99.90